Time;durP1;ratioP1;P1;durP2;ratioP2;P2;SDS_P1;SDS_P2;PMS_P1;PMS_P2;Temp;Humidity;BMP_temperature;BMP_pressure;BME280_temperature;BME280_humidity;BME280_pressure;Samples;Min_cycle;Max_cycle;Signal;HPM_P1;HPM_P2
2021/03/19 00:00:46;;;;;;;1.25;0.60;;;;;;;17.69;54.38;102331.38;6291906;22;19999;-78
2021/03/19 00:03:11;;;;;;;0.93;0.57;;;;;;;17.66;54.74;102337.41;6266105;22;20007;-78
2021/03/19 00:05:37;;;;;;;1.50;0.63;;;;;;;17.68;54.58;102335.72;6266610;22;20008;-78
2021/03/19 00:08:03;;;;;;;0.90;0.50;;;;;;;17.67;54.51;102346.94;6292665;22;20010;-78
2021/03/19 00:10:31;;;;;;;1.60;0.47;;;;;;;17.67;54.41;102338.28;6291948;22;20075;-78
2021/03/19 00:12:59;;;;;;;1.48;0.68;;;;;;;17.68;54.41;102347.81;6268921;22;20071;-78
2021/03/19 00:15:26;;;;;;;1.25;0.52;;;;;;;17.67;54.56;102354.75;6267701;22;20006;-79
2021/03/19 00:17:52;;;;;;;0.85;0.50;;;;;;;17.65;54.82;102353.88;6266962;22;20073;-79
2021/03/19 00:20:19;;;;;;;1.50;0.60;;;;;;;17.64;54.36;102354.72;6292693;22;20011;-79
2021/03/19 00:22:46;;;;;;;1.13;0.50;;;;;;;17.67;54.41;102364.31;6295256;22;20008;-78
2021/03/19 00:25:13;;;;;;;1.13;0.40;;;;;;;17.65;54.48;102363.41;6294683;22;20007;-78
2021/03/19 00:27:39;;;;;;;0.80;0.50;;;;;;;17.67;54.30;102361.72;6266629;22;20061;-78
2021/03/19 00:30:10;;;;;;;0.80;0.50;;;;;;;17.63;54.58;102352.97;6265649;22;20070;-78
2021/03/19 00:32:36;;;;;;;0.73;0.43;;;;;;;17.66;54.33;102370.38;6266637;22;19995;-78
2021/03/19 00:35:03;;;;;;;1.00;0.50;;;;;;;17.65;54.24;102366.88;6265489;22;20063;-78
2021/03/19 00:37:32;;;;;;;0.73;0.45;;;;;;;17.64;54.24;102370.34;6264922;22;20038;-78
2021/03/19 00:39:58;;;;;;;0.82;0.50;;;;;;;17.62;54.51;102369.47;6292622;22;20007;-78
2021/03/19 00:42:25;;;;;;;1.13;0.50;;;;;;;17.61;54.42;102374.63;6238755;22;20393;-78
2021/03/19 00:44:51;;;;;;;1.38;0.50;;;;;;;17.62;54.46;102374.66;6238985;22;20009;-79
2021/03/19 00:47:17;;;;;;;0.52;0.40;;;;;;;17.61;54.21;102382.44;6261196;22;20434;-78
2021/03/19 00:49:44;;;;;;;0.80;0.70;;;;;;;17.62;54.38;102389.41;6260069;22;20007;-78
2021/03/19 00:52:11;;;;;;;0.50;0.40;;;;;;;17.61;53.99;102385.91;6260284;22;20003;-78
2021/03/19 00:54:36;;;;;;;2.05;0.70;;;;;;;17.61;53.89;102385.03;6287046;22;20000;-78
2021/03/19 00:57:22;;;;;;;1.20;0.50;;;;;;;17.58;54.22;102383.28;6287199;22;20059;-78
2021/03/19 00:59:48;;;;;;;2.00;0.50;;;;;;;17.59;54.14;102387.63;6285704;22;20033;-78
2021/03/19 01:02:14;;;;;;;0.90;0.50;;;;;;;17.59;54.17;102386.75;6235180;22;20049;-78
2021/03/19 01:04:41;;;;;;;1.55;0.68;;;;;;;17.57;54.06;102389.34;6287652;22;19996;-78
2021/03/19 01:07:06;;;;;;;1.25;0.50;;;;;;;17.58;54.15;102383.28;6287237;22;20442;-77
2021/03/19 01:09:32;;;;;;;0.73;0.40;;;;;;;17.59;54.03;102386.75;6287579;22;20045;-78
2021/03/19 01:12:00;;;;;;;2.20;0.60;;;;;;;17.56;54.02;102382.38;6258024;22;20007;-78
2021/03/19 01:14:26;;;;;;;1.70;0.40;;;;;;;17.55;54.21;102382.34;6287006;22;20004;-77
2021/03/19 01:16:52;;;;;;;0.77;0.40;;;;;;;17.56;54.04;102377.16;6233192;22;20015;-77
2021/03/19 01:19:17;;;;;;;1.52;0.60;;;;;;;17.56;53.99;102384.09;6259162;22;20012;-78
2021/03/19 01:21:43;;;;;;;0.85;0.50;;;;;;;17.57;54.06;102391.06;6290575;22;20046;-77
2021/03/19 01:24:08;;;;;;;1.15;0.40;;;;;;;17.56;53.98;102389.31;6266413;22;20511;-77
2021/03/19 01:26:39;;;;;;;0.65;0.40;;;;;;;17.54;53.90;102393.63;6267030;22;20320;-77
2021/03/19 01:29:06;;;;;;;0.70;0.45;;;;;;;17.54;54.05;102388.41;6295067;22;20002;-78
2021/03/19 01:31:31;;;;;;;0.88;0.50;;;;;;;17.53;54.03;102397.97;6268412;22;19995;-78
2021/03/19 01:33:57;;;;;;;0.40;0.38;;;;;;;17.54;54.10;102401.44;6270115;22;20018;-78
2021/03/19 01:36:24;;;;;;;0.47;0.40;;;;;;;17.52;53.79;102400.53;6244155;22;20006;-78
2021/03/19 01:38:55;;;;;;;0.93;0.55;;;;;;;17.54;53.88;102410.09;6267869;22;20068;-78
2021/03/19 01:41:21;;;;;;;1.45;0.50;;;;;;;17.52;53.91;102405.72;6295940;22;20007;-77
2021/03/19 01:44:20;;;;;;;0.82;0.35;;;;;;;17.53;53.88;102413.56;6270582;22;20004;-78
2021/03/19 01:47:23;;;;;;;1.50;0.50;;;;;;;17.52;53.86;102422.22;6297345;22;20012;-79
2021/03/19 01:50:29;;;;;;;0.85;0.60;;;;;;;17.52;53.84;102416.16;6272115;22;20004;-79
2021/03/19 01:53:32;;;;;;;0.70;0.40;;;;;;;17.51;53.73;102422.19;6299709;22;20015;-78
2021/03/19 01:56:35;;;;;;;0.63;0.32;;;;;;;17.50;53.80;102418.72;6275177;22;20011;-79
2021/03/19 01:59:39;;;;;;;0.35;0.30;;;;;;;17.51;53.95;102422.19;6274416;22;20038;-79
2021/03/19 02:02:41;;;;;;;0.80;0.40;;;;;;;17.49;53.88;102422.19;6301281;22;20027;-78
2021/03/19 02:05:44;;;;;;;0.70;0.40;;;;;;;17.49;53.65;102424.78;6272650;22;20030;-79
2021/03/19 02:08:48;;;;;;;0.80;0.40;;;;;;;17.47;53.58;102422.16;6272880;22;19996;-79
2021/03/19 02:11:51;;;;;;;0.93;0.47;;;;;;;17.48;53.60;102425.63;6272869;22;20026;-79
2021/03/19 02:14:53;;;;;;;0.75;0.52;;;;;;;17.46;53.71;102430.81;6297979;22;20007;-78
2021/03/19 02:17:56;;;;;;;0.43;0.30;;;;;;;17.48;53.76;102438.63;6298197;22;19999;-78
2021/03/19 02:21:01;;;;;;;1.95;0.47;;;;;;;17.46;53.74;102438.63;6296300;22;20008;-79
2021/03/19 02:23:45;;;;;;;;;;;;;;;17.45;53.50;102431.66;6270940;22;20042;-78
2021/03/19 02:26:48;;;;;;;1.30;0.32;;;;;;;17.46;53.76;102430.81;6295726;22;19907;-78
2021/03/19 02:29:51;;;;;;;1.00;0.40;;;;;;;17.45;53.73;102436.88;6293900;22;20003;-78
2021/03/19 02:32:21;;;;;;;1.10;0.52;;;;;;;17.43;53.51;102432.50;6292741;22;20007;-79
2021/03/19 02:34:47;;;;;;;0.50;0.30;;;;;;;17.45;53.42;102438.59;6267659;22;20007;-78
2021/03/19 02:37:21;;;;;;;0.73;0.40;;;;;;;17.43;53.56;102442.91;6291263;22;20018;-78
2021/03/19 02:39:47;;;;;;;0.65;0.30;;;;;;;17.41;53.61;102439.38;6266157;22;20055;-78
2021/03/19 02:42:15;;;;;;;1.10;0.50;;;;;;;17.43;53.47;102454.19;6268301;22;20110;-78
2021/03/19 02:44:42;;;;;;;0.45;0.40;;;;;;;17.43;53.31;102456.78;6244942;22;20011;-78
2021/03/19 02:47:08;;;;;;;0.85;0.40;;;;;;;17.43;53.57;102454.19;6240385;22;20378;-79
2021/03/19 02:49:35;;;;;;;0.90;0.43;;;;;;;17.41;53.42;102458.47;6240762;22;20000;-78
2021/03/19 02:52:01;;;;;;;1.25;0.50;;;;;;;17.42;53.25;102456.75;6267031;22;20000;-78
2021/03/19 02:54:27;;;;;;;0.63;0.40;;;;;;;17.42;52.96;102461.94;6267187;22;20023;-78
2021/03/19 02:56:53;;;;;;;1.02;0.40;;;;;;;17.42;53.57;102469.75;6240764;22;20074;-78
2021/03/19 02:59:21;;;;;;;0.43;0.32;;;;;;;17.38;53.47;102461.03;6268634;22;20011;-78
2021/03/19 03:01:46;;;;;;;0.65;0.50;;;;;;;17.39;53.31;102461.91;6266958;22;20030;-78
2021/03/19 03:04:14;;;;;;;0.77;0.35;;;;;;;17.39;53.30;102464.50;6267693;22;20439;-78
2021/03/19 03:07:05;;;;;;;0.82;0.50;;;;;;;17.39;53.46;102469.72;6293786;22;20004;-78
2021/03/19 03:09:38;;;;;;;1.15;0.40;;;;;;;17.38;53.29;102471.44;6266063;22;20004;-78
2021/03/19 03:12:11;;;;;;;1.15;0.43;;;;;;;17.39;53.51;102467.13;6293741;22;20026;-78
2021/03/19 03:14:40;;;;;;;0.30;0.30;;;;;;;17.38;53.36;102473.19;6238762;23;20015;-78
2021/03/19 03:17:05;;;;;;;0.73;0.45;;;;;;;17.38;53.44;102474.06;6264709;23;20011;-79
2021/03/19 03:19:32;;;;;;;1.10;0.40;;;;;;;17.35;53.22;102470.50;6218122;23;20063;-79
2021/03/19 03:21:58;;;;;;;0.88;0.50;;;;;;;17.35;53.17;102486.13;6270670;23;20012;-78
2021/03/19 03:26:50;;;;;;;1.17;0.50;;;;;;;17.36;53.29;102483.56;6300178;22;20031;-79
2021/03/19 03:29:15;;;;;;;1.15;0.52;;;;;;;17.35;53.34;102473.97;6275913;22;20007;-78
2021/03/19 03:31:42;;;;;;;0.47;0.40;;;;;;;17.35;53.31;102481.78;6275195;22;20004;-78
2021/03/19 03:34:09;;;;;;;0.85;0.60;;;;;;;17.35;53.09;102478.31;6298148;22;20031;-78
2021/03/19 03:36:35;;;;;;;1.15;0.50;;;;;;;17.35;53.37;102478.31;6272981;22;20003;-79
2021/03/19 03:39:04;;;;;;;0.73;0.40;;;;;;;17.32;53.32;102479.16;6273697;22;20008;-79
2021/03/19 03:41:29;;;;;;;0.88;0.40;;;;;;;17.33;52.97;102485.22;6274531;22;20004;-79
2021/03/19 03:43:55;;;;;;;0.38;0.30;;;;;;;17.33;53.09;102495.63;6273537;22;20000;-79
2021/03/19 03:46:26;;;;;;;1.20;0.40;;;;;;;17.30;53.15;102488.66;6273544;22;20004;-79
2021/03/19 03:48:55;;;;;;;1.13;0.40;;;;;;;17.31;53.13;102500.81;6271906;22;20000;-79
2021/03/19 03:51:22;;;;;;;1.60;0.57;;;;;;;17.32;53.10;102505.16;6300172;22;19999;-79
2021/03/19 03:53:47;;;;;;;1.23;0.30;;;;;;;17.32;53.40;102506.91;6300493;22;20004;-79
2021/03/19 03:56:14;;;;;;;1.17;0.40;;;;;;;17.31;53.24;102511.22;6301378;22;20034;-79
2021/03/19 03:58:47;;;;;;;0.90;0.35;;;;;;;17.30;53.41;102506.00;6300754;22;20004;-79
2021/03/19 04:01:13;;;;;;;0.65;0.40;;;;;;;17.29;53.25;102512.94;6300113;22;20059;-79
2021/03/19 04:03:39;;;;;;;0.82;0.45;;;;;;;17.28;52.83;102504.22;6273773;22;20000;-78
2021/03/19 04:06:06;;;;;;;0.68;0.40;;;;;;;17.28;53.12;102503.34;6273844;22;20082;-78
2021/03/19 04:08:34;;;;;;;1.05;0.40;;;;;;;17.28;52.93;102505.97;6274292;22;19984;-78
2021/03/19 04:11:04;;;;;;;0.65;0.38;;;;;;;17.27;53.07;102520.69;6299969;22;20011;-78
2021/03/19 04:13:30;;;;;;;0.60;0.50;;;;;;;17.30;53.13;102526.81;6298293;22;20010;-78
2021/03/19 04:15:58;;;;;;;0.80;0.50;;;;;;;17.28;53.28;102526.78;6270869;22;20046;-78
2021/03/19 04:18:24;;;;;;;0.80;0.40;;;;;;;17.28;52.98;102539.78;6268345;22;20031;-78
2021/03/19 04:20:54;;;;;;;0.80;0.40;;;;;;;17.27;53.12;102538.03;6268953;22;20015;-78
2021/03/19 04:23:20;;;;;;;0.43;0.40;;;;;;;17.27;52.95;102540.63;6267711;22;20062;-77
2021/03/19 04:25:46;;;;;;;0.32;0.30;;;;;;;17.26;53.06;102544.06;6291977;22;20003;-78
2021/03/19 04:28:20;;;;;;;0.47;0.30;;;;;;;17.24;53.23;102540.56;6264783;22;20000;-79
2021/03/19 04:30:46;;;;;;;0.60;0.40;;;;;;;17.25;53.11;102542.34;6264828;22;20042;-79
2021/03/19 04:33:22;;;;;;;1.35;0.40;;;;;;;17.25;52.95;102553.63;6240303;22;20012;-78
2021/03/19 04:36:03;;;;;;;1.23;0.43;;;;;;;17.25;53.09;102552.75;6263375;22;20019;-79
2021/03/19 04:38:29;;;;;;;1.17;0.40;;;;;;;17.24;53.07;102548.38;6269342;22;20008;-79
2021/03/19 04:40:54;;;;;;;0.85;0.38;;;;;;;17.21;53.11;102546.59;6258598;22;20107;-77
2021/03/19 04:43:21;;;;;;;1.20;0.40;;;;;;;17.21;53.03;102541.38;6281142;22;20046;-79
2021/03/19 04:45:47;;;;;;;0.95;0.57;;;;;;;17.22;52.98;102534.44;6282755;22;20068;-79
2021/03/19 04:48:13;;;;;;;0.70;0.40;;;;;;;17.23;52.94;102547.50;6286594;22;20008;-79
2021/03/19 04:50:39;;;;;;;1.20;0.40;;;;;;;17.22;53.01;102537.97;6286832;22;20091;-79
2021/03/19 04:53:05;;;;;;;0.50;0.40;;;;;;;17.20;53.08;102538.75;6286731;22;20003;-78
2021/03/19 04:55:31;;;;;;;0.50;0.30;;;;;;;17.21;52.89;102546.59;6260235;22;20014;-79
2021/03/19 04:57:56;;;;;;;1.02;0.40;;;;;;;17.20;52.80;102547.47;6286042;22;19999;-78
2021/03/19 05:00:23;;;;;;;0.52;0.30;;;;;;;17.21;52.78;102546.59;6259976;22;20016;-78
2021/03/19 05:02:50;;;;;;;1.10;0.45;;;;;;;17.22;52.98;102552.66;6286330;22;19999;-78
2021/03/19 05:05:20;;;;;;;0.80;0.40;;;;;;;17.22;52.93;102558.78;6282830;22;20021;-77
2021/03/19 05:07:46;;;;;;;0.77;0.50;;;;;;;17.22;53.05;102563.06;6255979;22;20485;-78
2021/03/19 05:10:14;;;;;;;0.95;0.40;;;;;;;17.22;52.72;102574.38;6283157;22;20004;-78
2021/03/19 05:12:40;;;;;;;1.08;0.55;;;;;;;17.23;52.85;102580.44;6281507;22;20004;-78
2021/03/19 05:15:06;;;;;;;0.80;0.30;;;;;;;17.24;52.93;102580.47;6227566;22;20035;-78
2021/03/19 05:17:33;;;;;;;0.70;0.40;;;;;;;17.23;52.81;102576.13;6281801;22;20045;-78
2021/03/19 05:19:59;;;;;;;1.15;0.50;;;;;;;17.25;52.83;102577.03;6279571;22;20053;-78
2021/03/19 05:22:25;;;;;;;1.00;0.40;;;;;;;17.24;52.99;102580.47;6228286;22;20012;-78
2021/03/19 05:24:50;;;;;;;0.32;0.30;;;;;;;17.25;53.00;102591.78;6280313;22;20008;-78
2021/03/19 05:27:16;;;;;;;0.68;0.40;;;;;;;17.24;53.26;102587.41;6254482;22;20074;-78
2021/03/19 05:29:42;;;;;;;1.23;0.30;;;;;;;17.24;52.96;102593.47;6253703;22;20014;-78
2021/03/19 05:32:07;;;;;;;1.15;0.43;;;;;;;17.24;53.00;102596.06;6256363;22;20030;-80
2021/03/19 05:34:33;;;;;;;1.13;0.32;;;;;;;17.25;53.08;102600.44;6255280;22;20034;-78
2021/03/19 05:36:59;;;;;;;0.40;0.30;;;;;;;17.28;52.79;102608.28;6283392;22;20007;-78
2021/03/19 05:39:25;;;;;;;0.88;0.40;;;;;;;17.27;53.11;102608.28;6281820;22;20062;-78
2021/03/19 05:41:50;;;;;;;0.75;0.30;;;;;;;17.29;53.04;102609.19;6255004;22;20504;-78
2021/03/19 05:44:22;;;;;;;0.50;0.30;;;;;;;17.30;53.03;102615.28;6284321;22;20003;-78
2021/03/19 05:47:03;;;;;;;0.45;0.35;;;;;;;17.31;53.04;102617.00;6286433;22;20000;-78
2021/03/19 05:49:32;;;;;;;0.80;0.32;;;;;;;17.33;53.16;102620.53;6258993;22;20446;-78
2021/03/19 05:52:09;;;;;;;1.23;0.50;;;;;;;17.35;52.98;102624.03;6259199;22;20006;-78
2021/03/19 05:54:35;;;;;;;0.93;0.40;;;;;;;17.35;53.00;102626.63;6287388;22;20411;-78
2021/03/19 05:57:01;;;;;;;0.82;0.30;;;;;;;17.35;53.16;102622.31;6262934;22;20078;-78
2021/03/19 05:59:28;;;;;;;0.50;0.30;;;;;;;17.37;52.90;102632.75;6260114;22;20034;-78
2021/03/19 06:01:53;;;;;;;1.17;0.40;;;;;;;17.37;52.80;102633.63;6264014;22;20008;-78
2021/03/19 06:04:27;;;;;;;1.20;0.30;;;;;;;17.38;53.13;102631.94;6262642;22;20011;-78
2021/03/19 06:07:04;;;;;;;0.60;0.30;;;;;;;17.37;52.98;102630.16;6288670;22;20423;-79
2021/03/19 06:09:41;;;;;;;3.83;0.45;;;;;;;17.47;52.88;102640.78;6286834;22;20000;-78
2021/03/19 06:12:13;;;;;;;0.88;0.50;;;;;;;17.48;52.86;102639.94;6286614;22;19999;-78
2021/03/19 06:15:05;;;;;;;3.25;0.60;;;;;;;17.51;53.12;102638.22;6255316;22;20027;-78
2021/03/19 06:17:42;;;;;;;3.42;0.70;;;;;;;17.52;53.06;102646.06;6273876;22;20162;-78
2021/03/19 06:20:12;;;;;;;3.35;0.50;;;;;;;17.54;53.03;102640.91;6280963;22;20008;-78
2021/03/19 06:22:42;;;;;;;4.97;0.50;;;;;;;17.57;52.74;102644.47;6287339;22;19999;-78
2021/03/19 06:25:25;;;;;;;1.92;0.68;;;;;;;17.61;52.85;102648.84;6282934;22;20027;-79
2021/03/19 06:27:54;;;;;;;12.73;4.88;;;;;;;17.72;52.26;102648.19;6287170;22;20027;-79
2021/03/19 06:30:30;;;;;;;14.68;4.75;;;;;;;17.78;51.75;102643.97;6288038;22;20010;-79
2021/03/19 06:33:26;;;;;;;15.32;4.03;;;;;;;17.84;51.63;102648.44;6292945;22;20004;-78
2021/03/19 06:36:14;;;;;;;9.68;3.30;;;;;;;17.79;51.39;102653.53;6283977;22;20022;-79
2021/03/19 06:38:43;;;;;;;11.15;3.30;;;;;;;17.68;51.56;102655.03;6286861;22;20049;-78
2021/03/19 06:41:16;;;;;;;9.77;2.80;;;;;;;17.66;51.55;102655.03;6285752;22;20004;-78
2021/03/19 06:43:42;;;;;;;;;;;;;;;17.66;51.71;102662.84;6284683;22;20007;-79
2021/03/19 06:46:14;;;;;;;11.02;1.98;;;;;;;17.66;51.23;102656.78;6257730;22;20238;-78
2021/03/19 06:48:53;;;;;;;9.90;2.28;;;;;;;17.71;51.39;102662.94;6284211;22;20090;-78
2021/03/19 06:51:26;;;;;;;9.48;1.83;;;;;;;17.72;51.37;102656.00;6257179;22;20034;-78
2021/03/19 06:54:01;;;;;;;7.97;2.03;;;;;;;17.73;51.42;102663.84;6283566;22;20019;-79
2021/03/19 06:56:28;;;;;;;6.60;2.03;;;;;;;17.75;51.54;102669.97;6255874;22;20014;-78
2021/03/19 06:58:54;;;;;;;5.05;2.10;;;;;;;17.79;51.21;102669.16;6280421;22;20014;-78
2021/03/19 07:01:22;;;;;;;6.72;1.88;;;;;;;17.89;51.15;102678.91;6282043;22;20007;-79
2021/03/19 07:04:19;;;;;;;4.78;1.60;;;;;;;18.05;50.69;102673.97;6256028;22;20466;-79
2021/03/19 07:07:09;;;;;;;4.90;1.80;;;;;;;18.42;49.63;102678.13;6254184;22;20018;-78
2021/03/19 07:10:13;;;;;;;4.20;1.45;;;;;;;18.97;48.20;102674.63;6281706;22;20035;-79
2021/03/19 07:12:53;;;;;;;3.23;1.37;;;;;;;19.35;47.45;102667.25;6272498;22;20014;-81
2021/03/19 07:15:45;;;;;;;5.07;1.77;;;;;;;19.58;46.85;102664.94;6278312;22;20006;-84
2021/03/19 07:18:48;;;;;;;3.92;1.60;;;;;;;19.76;46.78;102672.13;6275276;22;20063;-82
2021/03/19 07:21:51;;;;;;;3.80;1.67;;;;;;;19.89;46.67;102681.84;6249881;22;20023;-82
2021/03/19 07:24:28;;;;;;;4.95;1.80;;;;;;;19.99;46.48;102681.91;6278982;22;20007;-81
2021/03/19 07:27:00;;;;;;;4.30;1.67;;;;;;;20.02;46.26;102697.66;6282223;22;19996;-80
2021/03/19 07:29:51;;;;;;;4.38;1.70;;;;;;;20.07;46.01;102693.31;6259112;22;20087;-80
2021/03/19 07:32:55;;;;;;;4.05;1.77;;;;;;;20.17;45.90;102697.78;6276226;22;20011;-81
2021/03/19 07:35:39;;;;;;;;;;;;;;;20.27;45.65;102694.41;6250601;22;20455;-78
2021/03/19 07:38:36;;;;;;;3.10;1.42;;;;;;;20.28;45.90;102697.88;6249136;22;19989;-78
2021/03/19 07:41:20;;;;;;;3.70;1.58;;;;;;;20.38;45.42;102704.06;6248261;22;20004;-79
2021/03/19 07:43:57;;;;;;;4.47;1.65;;;;;;;20.44;45.53;102711.94;6248942;22;20010;-79
2021/03/19 07:46:39;;;;;;;2.55;1.23;;;;;;;20.20;45.82;102703.03;6247006;22;20056;-79
2021/03/19 07:49:07;;;;;;;3.65;1.30;;;;;;;19.45;47.67;102710.91;6248683;22;20090;-79
2021/03/19 07:52:11;;;;;;;4.13;1.70;;;;;;;19.00;48.93;102717.25;6245054;22;20065;-80
2021/03/19 07:54:51;;;;;;;3.25;1.48;;;;;;;18.71;49.45;102715.06;6250357;22;20042;-80
2021/03/19 07:57:27;;;;;;;2.55;1.33;;;;;;;18.59;49.89;102725.28;6279694;22;20203;-78
2021/03/19 08:00:16;;;;;;;4.43;1.10;;;;;;;18.74;49.35;102727.28;6279179;22;20008;-80
2021/03/19 08:03:17;;;;;;;3.15;1.15;;;;;;;19.27;47.96;102724.63;6274127;22;20000;-82
2021/03/19 08:05:46;;;;;;;4.53;1.60;;;;;;;19.49;47.57;102736.22;6192198;22;20061;-80
2021/03/19 08:08:35;;;;;;;2.75;1.23;;;;;;;19.60;47.38;102741.56;6248124;22;20000;-81
2021/03/19 08:11:29;;;;;;;2.72;1.27;;;;;;;19.69;47.41;102736.47;6249565;22;19996;-81
2021/03/19 08:14:32;;;;;;;5.15;1.38;;;;;;;19.64;47.30;102740.75;6276902;22;19995;-84
2021/03/19 08:17:09;;;;;;;2.00;1.10;;;;;;;19.69;47.38;102741.69;6249461;22;20082;-87
2021/03/19 08:19:53;;;;;;;2.20;1.15;;;;;;;19.67;47.28;102745.13;6277307;22;20035;-89
2021/03/19 08:22:38;;;;;;;2.63;1.35;;;;;;;19.64;47.50;102748.59;6250649;22;20412;-89
2021/03/19 08:25:18;;;;;;;3.00;1.27;;;;;;;19.64;47.23;102740.75;6250801;22;20000;-89
2021/03/19 08:27:53;;;;;;;1.80;1.05;;;;;;;19.56;47.52;102738.91;6250579;22;20000;-89
2021/03/19 08:30:42;;;;;;;1.92;1.00;;;;;;;19.53;47.67;102747.56;6250996;22;20026;-91
2021/03/19 08:33:40;;;;;;;2.80;1.15;;;;;;;19.42;47.88;102750.03;6249629;22;19995;-91
2021/03/19 08:36:24;;;;;;;2.58;1.02;;;;;;;19.39;48.02;102751.72;6244678;22;20083;-91
2021/03/19 08:38:55;;;;;;;3.17;1.10;;;;;;;19.26;48.46;102748.94;6250766;22;20091;-90
2021/03/19 08:41:29;;;;;;;3.83;1.23;;;;;;;19.15;48.46;102760.97;6278980;22;20007;-88
2021/03/19 08:43:59;;;;;;;1.77;1.00;;;;;;;19.15;48.68;102758.38;6252362;22;20015;-86
2021/03/19 08:46:38;;;;;;;2.15;1.08;;;;;;;19.09;49.29;102760.88;6279368;22;20086;-82
2021/03/19 08:49:12;;;;;;;3.65;1.20;;;;;;;19.06;48.88;102768.69;6281412;22;20004;-85
2021/03/19 08:51:43;;;;;;;2.50;1.02;;;;;;;18.88;49.24;102774.50;6283088;22;20004;-88
2021/03/19 08:54:12;;;;;;;2.25;0.93;;;;;;;18.87;49.23;102770.97;6286534;22;20029;-87
2021/03/19 08:56:44;;;;;;;3.40;1.02;;;;;;;18.89;49.14;102778.84;6288993;22;20000;-79
2021/03/19 08:59:30;;;;;;;2.90;1.13;;;;;;;18.89;49.34;102781.44;6288171;22;20430;-82
2021/03/19 09:02:33;;;;;;;2.58;1.00;;;;;;;18.83;49.51;102797.88;6286585;22;20724;-81
2021/03/19 09:05:20;;;;;;;2.05;0.88;;;;;;;18.91;49.09;102795.41;6289516;22;20078;-81
2021/03/19 09:08:17;;;;;;;1.52;0.70;;;;;;;18.95;49.03;102802.44;6290736;22;20331;-79
2021/03/19 09:10:43;;;;;;;1.63;0.77;;;;;;;18.94;48.91;102803.25;6262596;22;20095;-80
2021/03/19 09:13:28;;;;;;;3.28;1.38;;;;;;;18.84;49.27;102804.84;6287243;22;20000;-79
2021/03/19 09:15:56;;;;;;;2.05;0.77;;;;;;;18.82;49.51;102800.47;6285511;22;20030;-84
2021/03/19 09:18:45;;;;;;;4.25;0.93;;;;;;;18.70;49.60;102804.59;6261586;22;20075;-80
2021/03/19 09:21:29;;;;;;;4.80;0.93;;;;;;;18.63;49.96;102809.69;6289714;22;20019;-80
2021/03/19 09:24:17;;;;;;;;;;;;;;;18.66;49.81;102812.31;6260583;22;20007;-80
2021/03/19 09:26:56;;;;;;;1.85;0.80;;;;;;;18.73;49.66;102813.31;6242270;22;19907;-80
2021/03/19 09:29:31;;;;;;;3.20;1.00;;;;;;;18.61;49.98;102812.25;6261291;22;20046;-80
2021/03/19 09:32:00;;;;;;;1.85;0.80;;;;;;;18.54;50.28;102819.94;6263196;22;20008;-79
2021/03/19 09:34:53;;;;;;;3.03;0.80;;;;;;;18.49;49.93;102817.25;6237206;22;20420;-79
2021/03/19 09:37:45;;;;;;;2.13;0.82;;;;;;;18.50;49.87;102819.88;6259592;22;20007;-80
2021/03/19 09:40:53;;;;;;;1.27;0.68;;;;;;;18.52;50.02;102813.81;6263222;22;20008;-79
2021/03/19 09:43:42;;;;;;;2.55;1.13;;;;;;;18.53;49.76;102824.28;6290926;22;20006;-81
2021/03/19 09:46:23;;;;;;;1.80;0.70;;;;;;;18.48;49.97;102826.78;6293824;22;20000;-81
2021/03/19 09:49:01;;;;;;;1.83;0.77;;;;;;;18.48;49.88;102824.19;6295976;22;20003;-81
2021/03/19 09:51:52;;;;;;;1.65;0.80;;;;;;;18.45;50.01;102828.47;6297459;22;20006;-79
2021/03/19 09:54:36;;;;;;;2.45;0.95;;;;;;;18.44;50.00;102831.94;6298358;22;20019;-81
2021/03/19 09:57:10;;;;;;;1.73;0.70;;;;;;;18.42;49.90;102833.63;6271698;22;20004;-80
2021/03/19 09:59:41;;;;;;;1.40;1.00;;;;;;;18.39;50.02;102828.38;6271355;22;20004;-79
2021/03/19 10:02:43;;;;;;;2.25;0.80;;;;;;;18.39;50.09;102839.66;6271531;22;20000;-80
2021/03/19 10:05:37;;;;;;;2.08;0.90;;;;;;;18.36;50.23;102837.00;6272623;22;20003;-79
2021/03/19 10:08:03;;;;;;;2.17;0.85;;;;;;;18.37;50.07;102840.50;6265770;22;20000;-80
2021/03/19 10:10:42;;;;;;;3.05;0.73;;;;;;;18.36;50.11;102847.44;6270359;22;20026;-81
2021/03/19 10:13:29;;;;;;;1.83;0.80;;;;;;;18.37;50.09;102850.91;6275063;22;20007;-80
2021/03/19 10:16:04;;;;;;;2.20;0.77;;;;;;;18.37;49.91;102850.91;6273436;22;20016;-79
2021/03/19 10:18:40;;;;;;;1.95;0.80;;;;;;;18.38;50.06;102855.25;6272657;22;20011;-80
2021/03/19 10:21:22;;;;;;;2.28;1.08;;;;;;;18.37;50.21;102838.75;6275762;22;20022;-81
2021/03/19 10:24:01;;;;;;;1.92;0.80;;;;;;;18.36;50.05;102854.38;6301188;22;20003;-80
2021/03/19 10:26:34;;;;;;;1.85;0.80;;;;;;;18.38;49.97;102848.34;6300467;22;19999;-81
2021/03/19 10:29:25;;;;;;;1.23;0.57;;;;;;;18.38;49.87;102852.66;6272272;22;20027;-80
2021/03/19 10:32:11;;;;;;;1.55;0.80;;;;;;;18.40;50.00;102854.47;6281093;22;20018;-83
2021/03/19 10:34:55;;;;;;;1.27;0.70;;;;;;;18.38;50.01;102857.88;6297910;22;20004;-80
2021/03/19 10:37:22;;;;;;;1.08;0.70;;;;;;;18.35;50.27;102847.41;6271687;22;20004;-79
2021/03/19 10:40:35;;;;;;;1.95;0.82;;;;;;;18.33;50.37;102851.69;6299527;22;20000;-80
2021/03/19 10:43:11;;;;;;;2.58;0.80;;;;;;;18.35;50.19;102844.78;6299106;22;20019;-78
2021/03/19 10:45:43;;;;;;;2.25;0.80;;;;;;;18.33;49.89;102842.16;6297712;22;20053;-80
2021/03/19 10:48:36;;;;;;;1.65;0.82;;;;;;;18.30;50.51;102844.72;6297680;22;20007;-81
2021/03/19 10:51:14;;;;;;;1.70;0.68;;;;;;;18.32;49.92;102849.97;6297718;22;19996;-80
2021/03/19 10:54:04;;;;;;;1.33;0.70;;;;;;;18.33;50.26;102854.31;6272073;22;20007;-80
2021/03/19 10:56:32;;;;;;;0.73;0.65;;;;;;;18.32;50.10;102848.22;6273994;22;20224;-80
2021/03/19 10:59:20;;;;;;;1.15;0.60;;;;;;;18.30;50.14;102848.19;6298643;22;20033;-80
2021/03/19 11:01:50;;;;;;;1.08;0.60;;;;;;;18.29;50.08;102851.66;6296982;22;20000;-80
2021/03/19 11:04:40;;;;;;;1.92;0.70;;;;;;;18.30;50.11;102858.59;6242025;22;20028;-79
2021/03/19 11:07:27;;;;;;;3.25;0.80;;;;;;;18.33;50.21;102859.53;6211102;23;20428;-79
2021/03/19 11:10:23;;;;;;;1.40;0.90;;;;;;;18.31;50.17;102859.47;6238594;23;20011;-79
2021/03/19 11:13:12;;;;;;;1.67;0.82;;;;;;;18.35;50.01;102865.66;6238362;23;20001;-79
2021/03/19 11:15:43;;;;;;;1.75;0.60;;;;;;;18.32;50.08;102868.19;6239818;23;20056;-80
2021/03/19 11:18:36;;;;;;;1.75;0.80;;;;;;;18.33;49.99;102870.81;6240565;23;20019;-79
2021/03/19 11:21:30;;;;;;;1.65;0.80;;;;;;;18.32;50.10;102860.38;6265560;23;20011;-79
2021/03/19 11:24:14;;;;;;;1.52;0.70;;;;;;;18.35;50.08;102871.72;6265406;23;20050;-79
2021/03/19 11:26:53;;;;;;;2.45;0.63;;;;;;;18.34;50.24;102883.03;6238510;23;20010;-81
2021/03/19 11:29:27;;;;;;;1.40;0.77;;;;;;;18.39;50.25;102886.59;6237022;23;20008;-80
2021/03/19 11:32:30;;;;;;;4.40;0.88;;;;;;;18.41;50.25;102878.81;6235639;23;20008;-79
2021/03/19 11:35:17;;;;;;;2.33;0.75;;;;;;;18.49;50.05;102879.84;6199739;23;20001;-80
2021/03/19 11:37:45;;;;;;;0.93;0.60;;;;;;;18.50;50.35;102878.97;6236520;22;20007;-79
2021/03/19 11:40:27;;;;;;;1.83;0.73;;;;;;;18.50;50.36;102882.44;6249694;22;20025;-79
2021/03/19 11:43:14;;;;;;;1.38;0.50;;;;;;;18.53;50.19;102878.16;6288897;22;20012;-79
2021/03/19 11:45:43;;;;;;;1.27;0.60;;;;;;;18.54;50.27;102882.53;6310534;22;20019;-79
2021/03/19 11:48:18;;;;;;;1.15;0.68;;;;;;;18.52;50.13;102881.63;6272820;22;20393;-79
2021/03/19 11:50:53;;;;;;;1.20;0.57;;;;;;;18.52;50.34;102889.44;6234189;23;20020;-78
2021/03/19 11:53:29;;;;;;;0.63;0.40;;;;;;;18.57;50.32;102895.59;6266644;23;20023;-80
2021/03/19 11:55:58;;;;;;;1.20;0.70;;;;;;;18.59;50.20;102897.38;6240085;23;20027;-80
2021/03/19 11:58:27;;;;;;;1.05;0.50;;;;;;;18.60;50.24;102891.34;6267202;23;20102;-80
2021/03/19 12:00:56;;;;;;;0.90;0.60;;;;;;;18.61;50.36;102900.91;6214214;23;20012;-79
2021/03/19 12:03:30;;;;;;;1.55;0.70;;;;;;;18.66;50.02;102901.00;6238130;23;20027;-79
2021/03/19 12:06:04;;;;;;;1.20;0.63;;;;;;;18.64;50.03;102907.91;6265696;23;20000;-82
2021/03/19 12:08:30;;;;;;;;;;;;;;;18.71;49.85;102901.97;6192661;23;20004;-80
2021/03/19 12:10:56;;;;;;;1.25;0.40;;;;;;;18.76;49.88;102902.94;6240325;23;19907;-80